sensor_id;sensor_type;location;lat;lon;timestamp;temperature;humidity
1680;DHT22;838;51.794;12.258;2023-01-19T00:01:37;-1.40;21.10
1680;DHT22;838;51.794;12.258;2023-01-19T00:04:02;-1.40;22.00
1680;DHT22;838;51.794;12.258;2023-01-19T00:06:29;-1.40;22.50
1680;DHT22;838;51.794;12.258;2023-01-19T00:08:55;-1.50;24.20
1680;DHT22;838;51.794;12.258;2023-01-19T00:11:22;-1.40;25.30
1680;DHT22;838;51.794;12.258;2023-01-19T00:13:47;-1.50;26.70
1680;DHT22;838;51.794;12.258;2023-01-19T00:16:17;-1.50;27.20
1680;DHT22;838;51.794;12.258;2023-01-19T00:18:48;-1.40;27.80
1680;DHT22;838;51.794;12.258;2023-01-19T00:23:42;-1.30;26.40
1680;DHT22;838;51.794;12.258;2023-01-19T00:26:08;-1.30;26.60
1680;DHT22;838;51.794;12.258;2023-01-19T00:28:35;-1.30;26.70
1680;DHT22;838;51.794;12.258;2023-01-19T00:31:01;-1.30;26.70
1680;DHT22;838;51.794;12.258;2023-01-19T00:33:27;-1.20;26.60
1680;DHT22;838;51.794;12.258;2023-01-19T00:35:53;-1.20;26.20
1680;DHT22;838;51.794;12.258;2023-01-19T00:38:21;-1.00;25.00
1680;DHT22;838;51.794;12.258;2023-01-19T00:40:47;-1.10;24.20
1680;DHT22;838;51.794;12.258;2023-01-19T00:43:13;-1.10;24.30
1680;DHT22;838;51.794;12.258;2023-01-19T00:45:39;-1.20;24.40
1680;DHT22;838;51.794;12.258;2023-01-19T00:48:04;-1.20;25.10
1680;DHT22;838;51.794;12.258;2023-01-19T00:50:31;-1.10;23.90
1680;DHT22;838;51.794;12.258;2023-01-19T00:52:58;-1.20;23.40
1680;DHT22;838;51.794;12.258;2023-01-19T00:55:25;-1.30;23.20
1680;DHT22;838;51.794;12.258;2023-01-19T00:57:53;-1.40;23.70
1680;DHT22;838;51.794;12.258;2023-01-19T01:00:20;-1.30;24.10
1680;DHT22;838;51.794;12.258;2023-01-19T01:02:47;-1.20;23.90
1680;DHT22;838;51.794;12.258;2023-01-19T01:05:13;-1.20;23.90
1680;DHT22;838;51.794;12.258;2023-01-19T01:07:39;-1.30;24.10
1680;DHT22;838;51.794;12.258;2023-01-19T01:10:11;-1.20;24.00
1680;DHT22;838;51.794;12.258;2023-01-19T01:12:37;-1.30;24.30
1680;DHT22;838;51.794;12.258;2023-01-19T01:15:07;-1.20;23.90
1680;DHT22;838;51.794;12.258;2023-01-19T01:17:33;-1.30;24.00
1680;DHT22;838;51.794;12.258;2023-01-19T01:19:59;-1.30;25.10
1680;DHT22;838;51.794;12.258;2023-01-19T01:22:25;-1.30;24.80
1680;DHT22;838;51.794;12.258;2023-01-19T01:24:50;-1.30;24.80
1680;DHT22;838;51.794;12.258;2023-01-19T01:27:16;-1.30;25.10
1680;DHT22;838;51.794;12.258;2023-01-19T01:29:42;-1.30;25.60
1680;DHT22;838;51.794;12.258;2023-01-19T01:32:14;-1.30;25.00
1680;DHT22;838;51.794;12.258;2023-01-19T01:34:41;-1.30;25.50
1680;DHT22;838;51.794;12.258;2023-01-19T01:37:06;-1.30;25.20
1680;DHT22;838;51.794;12.258;2023-01-19T01:39:36;-1.30;25.90
1680;DHT22;838;51.794;12.258;2023-01-19T01:42:03;-1.40;26.00
1680;DHT22;838;51.794;12.258;2023-01-19T01:44:47;-1.40;26.10
1680;DHT22;838;51.794;12.258;2023-01-19T01:49:42;-1.20;26.10
1680;DHT22;838;51.794;12.258;2023-01-19T01:52:08;-1.30;25.40
1680;DHT22;838;51.794;12.258;2023-01-19T01:54:34;-1.30;25.10
1680;DHT22;838;51.794;12.258;2023-01-19T01:57:03;-1.30;25.20
1680;DHT22;838;51.794;12.258;2023-01-19T01:59:36;-1.40;25.80
1680;DHT22;838;51.794;12.258;2023-01-19T02:02:08;-1.30;25.40
1680;DHT22;838;51.794;12.258;2023-01-19T02:05:04;-1.30;25.60
1680;DHT22;838;51.794;12.258;2023-01-19T02:10:19;-1.40;26.00
1680;DHT22;838;51.794;12.258;2023-01-19T02:13:05;-1.40;26.10
1680;DHT22;838;51.794;12.258;2023-01-19T02:15:44;-1.40;26.50
1680;DHT22;838;51.794;12.258;2023-01-19T02:18:10;-1.30;26.00
1680;DHT22;838;51.794;12.258;2023-01-19T02:20:36;-1.30;25.80
1680;DHT22;838;51.794;12.258;2023-01-19T02:23:07;-1.30;26.00
1680;DHT22;838;51.794;12.258;2023-01-19T02:25:35;-1.20;26.20
1680;DHT22;838;51.794;12.258;2023-01-19T02:28:02;-1.30;26.50
1680;DHT22;838;51.794;12.258;2023-01-19T02:30:28;-1.30;26.40
1680;DHT22;838;51.794;12.258;2023-01-19T02:32:54;-1.20;26.30
1680;DHT22;838;51.794;12.258;2023-01-19T02:35:20;-1.20;26.40
1680;DHT22;838;51.794;12.258;2023-01-19T02:37:47;-1.30;25.80
1680;DHT22;838;51.794;12.258;2023-01-19T02:40:16;-1.10;25.70
1680;DHT22;838;51.794;12.258;2023-01-19T02:42:49;-1.20;25.50
1680;DHT22;838;51.794;12.258;2023-01-19T02:45:18;-1.30;25.60
1680;DHT22;838;51.794;12.258;2023-01-19T02:47:47;-1.30;25.70
1680;DHT22;838;51.794;12.258;2023-01-19T02:53:43;-1.30;25.90
1680;DHT22;838;51.794;12.258;2023-01-19T03:02:07;-1.40;25.60
1680;DHT22;838;51.794;12.258;2023-01-19T03:15:57;-1.50;26.10
1680;DHT22;838;51.794;12.258;2023-01-19T03:18:26;-1.50;26.30
1680;DHT22;838;51.794;12.258;2023-01-19T03:20:57;-1.50;25.50
1680;DHT22;838;51.794;12.258;2023-01-19T03:25:54;-1.40;25.30
1680;DHT22;838;51.794;12.258;2023-01-19T03:28:23;-1.50;25.40
1680;DHT22;838;51.794;12.258;2023-01-19T03:31:00;-1.40;25.40
1680;DHT22;838;51.794;12.258;2023-01-19T03:33:32;-1.30;25.00
1680;DHT22;838;51.794;12.258;2023-01-19T03:36:11;-1.40;24.90
1680;DHT22;838;51.794;12.258;2023-01-19T03:38:40;-1.30;24.40
1680;DHT22;838;51.794;12.258;2023-01-19T03:41:10;-1.30;24.10
1680;DHT22;838;51.794;12.258;2023-01-19T03:43:38;-1.30;23.90
1680;DHT22;838;51.794;12.258;2023-01-19T03:46:05;-1.40;23.90
1680;DHT22;838;51.794;12.258;2023-01-19T03:48:32;-1.40;23.90
1680;DHT22;838;51.794;12.258;2023-01-19T03:51:03;-1.20;22.80
1680;DHT22;838;51.794;12.258;2023-01-19T03:53:29;-1.10;21.10
1680;DHT22;838;51.794;12.258;2023-01-19T03:58:21;-1.00;21.00
1680;DHT22;838;51.794;12.258;2023-01-19T04:00:47;-1.10;21.30
1680;DHT22;838;51.794;12.258;2023-01-19T04:03:14;-1.00;20.80
1680;DHT22;838;51.794;12.258;2023-01-19T04:05:40;-1.00;20.40
1680;DHT22;838;51.794;12.258;2023-01-19T04:08:06;-0.90;20.30
1680;DHT22;838;51.794;12.258;2023-01-19T04:10:32;-1.00;20.60
1680;DHT22;838;51.794;12.258;2023-01-19T04:12:58;-0.90;20.20
1680;DHT22;838;51.794;12.258;2023-01-19T04:15:26;-0.80;19.10
1680;DHT22;838;51.794;12.258;2023-01-19T04:17:51;-1.00;19.60
1680;DHT22;838;51.794;12.258;2023-01-19T04:20:17;-1.00;20.00
1680;DHT22;838;51.794;12.258;2023-01-19T04:22:43;-1.00;19.40
1680;DHT22;838;51.794;12.258;2023-01-19T04:25:09;-0.90;19.70
1680;DHT22;838;51.794;12.258;2023-01-19T04:27:36;-0.90;20.20
1680;DHT22;838;51.794;12.258;2023-01-19T04:30:02;-1.20;20.10
1680;DHT22;838;51.794;12.258;2023-01-19T04:32:29;-1.40;21.00
1680;DHT22;838;51.794;12.258;2023-01-19T04:34:55;-1.30;21.40
1680;DHT22;838;51.794;12.258;2023-01-19T04:37:21;-1.40;21.60
1680;DHT22;838;51.794;12.258;2023-01-19T04:39:47;-1.50;22.10
1680;DHT22;838;51.794;12.258;2023-01-19T04:42:12;-1.60;22.70
1680;DHT22;838;51.794;12.258;2023-01-19T04:44:38;-1.60;23.50
1680;DHT22;838;51.794;12.258;2023-01-19T04:47:04;-1.80;23.50
1680;DHT22;838;51.794;12.258;2023-01-19T04:49:29;-1.70;24.50
1680;DHT22;838;51.794;12.258;2023-01-19T04:51:55;-1.80;24.20
1680;DHT22;838;51.794;12.258;2023-01-19T04:54:21;-1.80;24.30
1680;DHT22;838;51.794;12.258;2023-01-19T04:56:47;-1.50;24.60
1680;DHT22;838;51.794;12.258;2023-01-19T04:59:13;-1.70;24.00
1680;DHT22;838;51.794;12.258;2023-01-19T05:01:38;-1.60;22.70
1680;DHT22;838;51.794;12.258;2023-01-19T05:04:04;-1.60;22.50
1680;DHT22;838;51.794;12.258;2023-01-19T05:06:32;-1.70;22.40
1680;DHT22;838;51.794;12.258;2023-01-19T05:08:58;-1.80;22.80
1680;DHT22;838;51.794;12.258;2023-01-19T05:11:23;-1.80;23.30
1680;DHT22;838;51.794;12.258;2023-01-19T05:13:49;-1.80;23.40
1680;DHT22;838;51.794;12.258;2023-01-19T05:16:15;-1.80;22.90
1680;DHT22;838;51.794;12.258;2023-01-19T05:18:41;-1.80;22.90
1680;DHT22;838;51.794;12.258;2023-01-19T05:21:07;-1.80;22.50
1680;DHT22;838;51.794;12.258;2023-01-19T05:23:33;-1.90;22.60
1680;DHT22;838;51.794;12.258;2023-01-19T05:26:00;-1.90;22.30
1680;DHT22;838;51.794;12.258;2023-01-19T05:28:30;-1.90;22.50
1680;DHT22;838;51.794;12.258;2023-01-19T05:30:56;-1.80;21.70
1680;DHT22;838;51.794;12.258;2023-01-19T05:33:22;-1.80;21.40
1680;DHT22;838;51.794;12.258;2023-01-19T05:35:51;-1.80;21.70
1680;DHT22;838;51.794;12.258;2023-01-19T05:38:18;-1.60;21.00
1680;DHT22;838;51.794;12.258;2023-01-19T05:40:45;-1.60;20.00
1680;DHT22;838;51.794;12.258;2023-01-19T05:43:12;-1.60;19.40
1680;DHT22;838;51.794;12.258;2023-01-19T05:45:38;-1.60;19.70
1680;DHT22;838;51.794;12.258;2023-01-19T05:48:05;-1.70;19.30
1680;DHT22;838;51.794;12.258;2023-01-19T05:50:31;-1.80;19.90
1680;DHT22;838;51.794;12.258;2023-01-19T05:52:57;-1.80;19.10
1680;DHT22;838;51.794;12.258;2023-01-19T05:55:23;-2.10;19.80
1680;DHT22;838;51.794;12.258;2023-01-19T05:57:48;-2.30;20.60
1680;DHT22;838;51.794;12.258;2023-01-19T06:00:14;-2.40;21.40
1680;DHT22;838;51.794;12.258;2023-01-19T06:02:40;-2.40;21.60
1680;DHT22;838;51.794;12.258;2023-01-19T06:05:06;-2.50;21.90
1680;DHT22;838;51.794;12.258;2023-01-19T06:07:32;-2.60;22.70
1680;DHT22;838;51.794;12.258;2023-01-19T06:09:58;-2.80;23.60
1680;DHT22;838;51.794;12.258;2023-01-19T06:12:23;-2.80;24.50
1680;DHT22;838;51.794;12.258;2023-01-19T06:14:49;-2.90;25.10
1680;DHT22;838;51.794;12.258;2023-01-19T06:17:15;-2.80;25.80
1680;DHT22;838;51.794;12.258;2023-01-19T06:19:41;-2.70;26.10
1680;DHT22;838;51.794;12.258;2023-01-19T06:22:06;-2.60;25.40
1680;DHT22;838;51.794;12.258;2023-01-19T06:24:32;-2.30;24.60
1680;DHT22;838;51.794;12.258;2023-01-19T06:26:58;-2.30;23.70
1680;DHT22;838;51.794;12.258;2023-01-19T06:29:25;-2.20;23.20
1680;DHT22;838;51.794;12.258;2023-01-19T06:31:51;-2.20;22.90
1680;DHT22;838;51.794;12.258;2023-01-19T06:34:17;-2.10;22.80
1680;DHT22;838;51.794;12.258;2023-01-19T06:36:44;-2.10;21.60
1680;DHT22;838;51.794;12.258;2023-01-19T06:39:11;-2.20;21.80
1680;DHT22;838;51.794;12.258;2023-01-19T06:41:37;-2.30;22.30
1680;DHT22;838;51.794;12.258;2023-01-19T06:44:03;-2.30;22.50
1680;DHT22;838;51.794;12.258;2023-01-19T06:46:28;-2.30;22.30
1680;DHT22;838;51.794;12.258;2023-01-19T06:48:54;-2.20;22.20
1680;DHT22;838;51.794;12.258;2023-01-19T06:51:21;-2.30;22.30
1680;DHT22;838;51.794;12.258;2023-01-19T06:53:47;-2.20;21.70
1680;DHT22;838;51.794;12.258;2023-01-19T06:56:12;-2.20;21.50
1680;DHT22;838;51.794;12.258;2023-01-19T06:58:38;-2.10;21.10
1680;DHT22;838;51.794;12.258;2023-01-19T07:01:06;-2.10;20.60
1680;DHT22;838;51.794;12.258;2023-01-19T07:03:33;-2.10;20.70
1680;DHT22;838;51.794;12.258;2023-01-19T07:05:59;-2.10;20.20
1680;DHT22;838;51.794;12.258;2023-01-19T07:08:27;-2.10;20.40
1680;DHT22;838;51.794;12.258;2023-01-19T07:10:58;-1.90;20.00
1680;DHT22;838;51.794;12.258;2023-01-19T07:13:25;-1.80;19.80
1680;DHT22;838;51.794;12.258;2023-01-19T07:15:50;-1.70;19.50
1680;DHT22;838;51.794;12.258;2023-01-19T07:18:16;-1.60;17.90
1680;DHT22;838;51.794;12.258;2023-01-19T07:20:42;-1.70;18.40
1680;DHT22;838;51.794;12.258;2023-01-19T07:23:10;-1.80;18.50
1680;DHT22;838;51.794;12.258;2023-01-19T07:25:36;-1.80;18.50
1680;DHT22;838;51.794;12.258;2023-01-19T07:28:02;-1.80;19.50
1680;DHT22;838;51.794;12.258;2023-01-19T07:30:29;-1.70;19.20
1680;DHT22;838;51.794;12.258;2023-01-19T07:32:55;-1.60;19.10
1680;DHT22;838;51.794;12.258;2023-01-19T07:35:24;-1.50;18.50
1680;DHT22;838;51.794;12.258;2023-01-19T07:37:50;-1.60;19.30
1680;DHT22;838;51.794;12.258;2023-01-19T07:40:16;-1.60;18.70
1680;DHT22;838;51.794;12.258;2023-01-19T07:42:46;-1.60;19.10
1680;DHT22;838;51.794;12.258;2023-01-19T07:45:13;-1.60;19.70
1680;DHT22;838;51.794;12.258;2023-01-19T07:47:44;-1.30;19.40
1680;DHT22;838;51.794;12.258;2023-01-19T07:50:11;-1.00;18.70
1680;DHT22;838;51.794;12.258;2023-01-19T07:52:37;-0.60;18.60
1680;DHT22;838;51.794;12.258;2023-01-19T07:55:03;-0.30;16.10
1680;DHT22;838;51.794;12.258;2023-01-19T07:57:29;-0.10;15.30
1680;DHT22;838;51.794;12.258;2023-01-19T07:59:55;0.20;13.80
1680;DHT22;838;51.794;12.258;2023-01-19T08:02:21;-0.10;13.00
1680;DHT22;838;51.794;12.258;2023-01-19T08:04:47;0.10;13.90
1680;DHT22;838;51.794;12.258;2023-01-19T08:07:13;-0.10;13.40
1680;DHT22;838;51.794;12.258;2023-01-19T08:09:39;0.10;13.90
1680;DHT22;838;51.794;12.258;2023-01-19T08:12:05;0.00;13.40
1680;DHT22;838;51.794;12.258;2023-01-19T08:14:31;-0.10;14.00
1680;DHT22;838;51.794;12.258;2023-01-19T08:17:02;0.00;14.30
1680;DHT22;838;51.794;12.258;2023-01-19T08:19:28;0.00;14.20
1680;DHT22;838;51.794;12.258;2023-01-19T08:21:54;0.10;14.60
1680;DHT22;838;51.794;12.258;2023-01-19T08:24:21;0.00;14.20
1680;DHT22;838;51.794;12.258;2023-01-19T08:26:51;0.00;14.60
1680;DHT22;838;51.794;12.258;2023-01-19T08:29:22;-0.10;14.70
1680;DHT22;838;51.794;12.258;2023-01-19T08:31:48;-0.10;15.30
1680;DHT22;838;51.794;12.258;2023-01-19T08:34:14;-0.10;15.70
1680;DHT22;838;51.794;12.258;2023-01-19T08:36:40;-0.10;15.90
1680;DHT22;838;51.794;12.258;2023-01-19T08:39:05;0.00;15.70
1680;DHT22;838;51.794;12.258;2023-01-19T08:41:31;0.10;15.50
1680;DHT22;838;51.794;12.258;2023-01-19T08:43:57;0.30;15.30
1680;DHT22;838;51.794;12.258;2023-01-19T08:46:23;0.50;14.80
1680;DHT22;838;51.794;12.258;2023-01-19T08:48:48;0.60;14.20
1680;DHT22;838;51.794;12.258;2023-01-19T08:51:15;0.70;14.00
1680;DHT22;838;51.794;12.258;2023-01-19T08:53:41;0.90;13.70
1680;DHT22;838;51.794;12.258;2023-01-19T08:56:08;1.10;13.40
1680;DHT22;838;51.794;12.258;2023-01-19T08:58:46;1.40;12.80
1680;DHT22;838;51.794;12.258;2023-01-19T09:01:12;2.00;11.30
1680;DHT22;838;51.794;12.258;2023-01-19T09:03:42;2.40;10.00
1680;DHT22;838;51.794;12.258;2023-01-19T09:06:09;2.40;8.50
1680;DHT22;838;51.794;12.258;2023-01-19T09:08:35;2.20;9.00
1680;DHT22;838;51.794;12.258;2023-01-19T09:11:01;1.80;9.10
1680;DHT22;838;51.794;12.258;2023-01-19T09:13:26;1.30;10.50
1680;DHT22;838;51.794;12.258;2023-01-19T09:15:52;1.10;11.90
1680;DHT22;838;51.794;12.258;2023-01-19T09:18:20;1.20;12.80
1680;DHT22;838;51.794;12.258;2023-01-19T09:20:48;0.80;13.10
1680;DHT22;838;51.794;12.258;2023-01-19T09:23:16;0.70;13.90
1680;DHT22;838;51.794;12.258;2023-01-19T09:25:44;0.60;14.90
1680;DHT22;838;51.794;12.258;2023-01-19T09:28:12;0.60;15.20
1680;DHT22;838;51.794;12.258;2023-01-19T09:30:40;0.60;14.90
1680;DHT22;838;51.794;12.258;2023-01-19T09:33:08;0.70;15.00
1680;DHT22;838;51.794;12.258;2023-01-19T09:35:36;0.70;15.40
1680;DHT22;838;51.794;12.258;2023-01-19T09:38:03;0.70;15.60
1680;DHT22;838;51.794;12.258;2023-01-19T09:40:29;0.60;15.90
1680;DHT22;838;51.794;12.258;2023-01-19T09:42:56;0.60;16.00
1680;DHT22;838;51.794;12.258;2023-01-19T09:45:53;0.60;15.70
1680;DHT22;838;51.794;12.258;2023-01-19T09:48:51;0.60;16.70
1680;DHT22;838;51.794;12.258;2023-01-19T09:51:26;0.50;17.40
1680;DHT22;838;51.794;12.258;2023-01-19T09:56:22;0.70;18.00
1680;DHT22;838;51.794;12.258;2023-01-19T09:58:49;0.80;17.50
1680;DHT22;838;51.794;12.258;2023-01-19T10:06:46;1.20;16.60
1680;DHT22;838;51.794;12.258;2023-01-19T10:12:34;1.40;16.10
1680;DHT22;838;51.794;12.258;2023-01-19T10:15:04;1.40;15.70
1680;DHT22;838;51.794;12.258;2023-01-19T10:20:41;1.70;15.10
1680;DHT22;838;51.794;12.258;2023-01-19T10:23:33;1.80;14.90
1680;DHT22;838;51.794;12.258;2023-01-19T10:26:10;1.70;14.80
1680;DHT22;838;51.794;12.258;2023-01-19T10:28:37;1.80;15.00
1680;DHT22;838;51.794;12.258;2023-01-19T10:31:05;1.80;14.50
1680;DHT22;838;51.794;12.258;2023-01-19T10:33:32;1.80;14.90
1680;DHT22;838;51.794;12.258;2023-01-19T10:36:03;1.80;14.90
1680;DHT22;838;51.794;12.258;2023-01-19T10:38:29;1.80;15.40
1680;DHT22;838;51.794;12.258;2023-01-19T10:41:02;1.80;14.50
1680;DHT22;838;51.794;12.258;2023-01-19T10:43:42;2.00;14.60
1680;DHT22;838;51.794;12.258;2023-01-19T10:48:55;2.10;14.40
1680;DHT22;838;51.794;12.258;2023-01-19T10:51:21;2.10;14.50
1680;DHT22;838;51.794;12.258;2023-01-19T10:54:01;2.20;15.10
1680;DHT22;838;51.794;12.258;2023-01-19T10:56:34;2.30;14.40
1680;DHT22;838;51.794;12.258;2023-01-19T10:59:04;2.50;14.30
1680;DHT22;838;51.794;12.258;2023-01-19T11:01:31;2.50;12.80
1680;DHT22;838;51.794;12.258;2023-01-19T11:04:24;2.60;13.90
1680;DHT22;838;51.794;12.258;2023-01-19T11:06:52;2.70;12.20
1680;DHT22;838;51.794;12.258;2023-01-19T11:09:27;2.80;12.10
1680;DHT22;838;51.794;12.258;2023-01-19T11:11:53;2.80;12.20
1680;DHT22;838;51.794;12.258;2023-01-19T11:14:22;2.70;12.50
1680;DHT22;838;51.794;12.258;2023-01-19T11:16:54;2.60;11.70
1680;DHT22;838;51.794;12.258;2023-01-19T11:19:29;2.60;12.30
1680;DHT22;838;51.794;12.258;2023-01-19T11:22:19;2.70;12.40
1680;DHT22;838;51.794;12.258;2023-01-19T11:24:47;2.80;12.70
1680;DHT22;838;51.794;12.258;2023-01-19T11:27:19;2.80;12.30
1680;DHT22;838;51.794;12.258;2023-01-19T11:29:52;2.80;12.60
1680;DHT22;838;51.794;12.258;2023-01-19T11:32:22;2.80;11.80
1680;DHT22;838;51.794;12.258;2023-01-19T11:34:48;2.80;12.20
1680;DHT22;838;51.794;12.258;2023-01-19T11:39:51;2.80;12.90
1680;DHT22;838;51.794;12.258;2023-01-19T11:42:18;2.80;12.70
1680;DHT22;838;51.794;12.258;2023-01-19T11:47:21;2.90;13.50
1680;DHT22;838;51.794;12.258;2023-01-19T11:53:03;3.30;12.30
1680;DHT22;838;51.794;12.258;2023-01-19T11:58:13;3.50;11.90
1680;DHT22;838;51.794;12.258;2023-01-19T12:06:37;3.80;10.60
1680;DHT22;838;51.794;12.258;2023-01-19T12:09:14;3.90;10.40
1680;DHT22;838;51.794;12.258;2023-01-19T12:14:19;3.90;10.10
1680;DHT22;838;51.794;12.258;2023-01-19T12:16:49;3.90;10.30
1680;DHT22;838;51.794;12.258;2023-01-19T12:19:21;4.00;10.30
1680;DHT22;838;51.794;12.258;2023-01-19T12:21:48;4.10;9.70
1680;DHT22;838;51.794;12.258;2023-01-19T12:24:32;4.20;8.60
1680;DHT22;838;51.794;12.258;2023-01-19T12:27:12;4.30;8.70
1680;DHT22;838;51.794;12.258;2023-01-19T12:29:41;4.20;8.10
1680;DHT22;838;51.794;12.258;2023-01-19T12:34:49;4.10;8.50
1680;DHT22;838;51.794;12.258;2023-01-19T12:40:03;4.40;8.20
1680;DHT22;838;51.794;12.258;2023-01-19T12:42:30;4.70;7.60
1680;DHT22;838;51.794;12.258;2023-01-19T12:45:15;4.70;6.80
1680;DHT22;838;51.794;12.258;2023-01-19T12:47:49;4.80;6.30
1680;DHT22;838;51.794;12.258;2023-01-19T12:50:17;4.70;5.70
1680;DHT22;838;51.794;12.258;2023-01-19T12:52:59;4.60;5.70
1680;DHT22;838;51.794;12.258;2023-01-19T12:55:30;4.50;5.70
1680;DHT22;838;51.794;12.258;2023-01-19T12:58:04;4.40;6.30
1680;DHT22;838;51.794;12.258;2023-01-19T13:00:42;4.30;6.60
1680;DHT22;838;51.794;12.258;2023-01-19T13:13:31;4.50;6.10
1680;DHT22;838;51.794;12.258;2023-01-19T13:21:41;4.50;6.30
1680;DHT22;838;51.794;12.258;2023-01-19T13:24:33;4.40;6.30
1680;DHT22;838;51.794;12.258;2023-01-19T13:27:16;4.30;6.40
1680;DHT22;838;51.794;12.258;2023-01-19T13:29:42;4.30;6.70
1680;DHT22;838;51.794;12.258;2023-01-19T13:32:16;4.40;7.00
1680;DHT22;838;51.794;12.258;2023-01-19T13:34:52;4.20;6.40
1680;DHT22;838;51.794;12.258;2023-01-19T13:37:25;4.10;6.90
1680;DHT22;838;51.794;12.258;2023-01-19T13:39:53;4.20;7.50
1680;DHT22;838;51.794;12.258;2023-01-19T13:42:37;4.20;7.40
1680;DHT22;838;51.794;12.258;2023-01-19T13:45:33;4.20;7.50
1680;DHT22;838;51.794;12.258;2023-01-19T13:48:06;4.20;7.60
1680;DHT22;838;51.794;12.258;2023-01-19T13:50:35;4.20;8.00
1680;DHT22;838;51.794;12.258;2023-01-19T13:53:16;4.20;7.90
1680;DHT22;838;51.794;12.258;2023-01-19T13:55:43;4.30;7.90
1680;DHT22;838;51.794;12.258;2023-01-19T13:58:22;4.30;8.00
1680;DHT22;838;51.794;12.258;2023-01-19T14:00:48;4.30;8.10
1680;DHT22;838;51.794;12.258;2023-01-19T14:05:41;4.10;8.80
1680;DHT22;838;51.794;12.258;2023-01-19T14:10:34;4.10;9.60
1680;DHT22;838;51.794;12.258;2023-01-19T14:13:22;3.90;9.80
1680;DHT22;838;51.794;12.258;2023-01-19T14:15:50;3.90;10.10
1680;DHT22;838;51.794;12.258;2023-01-19T14:26:01;4.10;9.20
1680;DHT22;838;51.794;12.258;2023-01-19T14:28:34;4.10;9.60
1680;DHT22;838;51.794;12.258;2023-01-19T14:31:19;4.00;9.50
1680;DHT22;838;51.794;12.258;2023-01-19T14:33:46;4.00;9.80
1680;DHT22;838;51.794;12.258;2023-01-19T14:38:45;4.00;9.90
1680;DHT22;838;51.794;12.258;2023-01-19T14:41:12;3.90;9.70
1680;DHT22;838;51.794;12.258;2023-01-19T14:43:46;3.90;10.40
1680;DHT22;838;51.794;12.258;2023-01-19T14:46:18;4.00;9.60
1680;DHT22;838;51.794;12.258;2023-01-19T14:48:49;3.90;9.70
1680;DHT22;838;51.794;12.258;2023-01-19T14:51:17;4.00;9.20
1680;DHT22;838;51.794;12.258;2023-01-19T14:53:49;4.10;9.40
1680;DHT22;838;51.794;12.258;2023-01-19T14:56:30;4.10;9.00
1680;DHT22;838;51.794;12.258;2023-01-19T14:58:58;4.20;8.90
1680;DHT22;838;51.794;12.258;2023-01-19T15:01:25;4.20;8.60
1680;DHT22;838;51.794;12.258;2023-01-19T15:03:55;4.10;7.80
1680;DHT22;838;51.794;12.258;2023-01-19T15:06:25;4.10;8.10
1680;DHT22;838;51.794;12.258;2023-01-19T15:08:51;4.00;8.40
1680;DHT22;838;51.794;12.258;2023-01-19T15:13:49;4.00;8.50
1680;DHT22;838;51.794;12.258;2023-01-19T15:16:16;4.00;8.70
1680;DHT22;838;51.794;12.258;2023-01-19T15:18:42;3.90;8.80
1680;DHT22;838;51.794;12.258;2023-01-19T15:21:13;4.00;8.80
1680;DHT22;838;51.794;12.258;2023-01-19T15:23:39;4.00;8.80
1680;DHT22;838;51.794;12.258;2023-01-19T15:26:05;3.90;9.90
1680;DHT22;838;51.794;12.258;2023-01-19T15:28:31;3.80;11.00
1680;DHT22;838;51.794;12.258;2023-01-19T15:30:58;3.80;11.90
1680;DHT22;838;51.794;12.258;2023-01-19T15:33:26;3.70;12.20
1680;DHT22;838;51.794;12.258;2023-01-19T15:35:53;3.70;12.60
1680;DHT22;838;51.794;12.258;2023-01-19T15:38:19;3.70;13.30
1680;DHT22;838;51.794;12.258;2023-01-19T15:40:46;3.70;13.50
1680;DHT22;838;51.794;12.258;2023-01-19T15:43:12;3.70;13.80
1680;DHT22;838;51.794;12.258;2023-01-19T15:48:13;3.80;13.90
1680;DHT22;838;51.794;12.258;2023-01-19T15:50:41;3.70;14.10
1680;DHT22;838;51.794;12.258;2023-01-19T15:53:15;3.70;14.50
1680;DHT22;838;51.794;12.258;2023-01-19T15:55:42;3.80;14.40
1680;DHT22;838;51.794;12.258;2023-01-19T15:58:07;3.80;14.10
1680;DHT22;838;51.794;12.258;2023-01-19T16:00:34;3.70;14.40
1680;DHT22;838;51.794;12.258;2023-01-19T16:03:00;3.60;14.60
1680;DHT22;838;51.794;12.258;2023-01-19T16:05:27;3.50;15.00
1680;DHT22;838;51.794;12.258;2023-01-19T16:07:53;3.40;15.40
1680;DHT22;838;51.794;12.258;2023-01-19T16:10:19;3.50;15.70
1680;DHT22;838;51.794;12.258;2023-01-19T16:12:45;3.50;15.70
1680;DHT22;838;51.794;12.258;2023-01-19T16:15:13;3.50;15.80
1680;DHT22;838;51.794;12.258;2023-01-19T16:17:38;3.60;15.60
1680;DHT22;838;51.794;12.258;2023-01-19T16:20:05;3.60;15.40
1680;DHT22;838;51.794;12.258;2023-01-19T16:22:31;3.60;15.90
1680;DHT22;838;51.794;12.258;2023-01-19T16:24:57;3.70;15.50
1680;DHT22;838;51.794;12.258;2023-01-19T16:27:23;3.60;16.00
1680;DHT22;838;51.794;12.258;2023-01-19T16:29:49;3.70;16.70
1680;DHT22;838;51.794;12.258;2023-01-19T16:32:15;3.40;18.40
1680;DHT22;838;51.794;12.258;2023-01-19T16:34:40;3.30;20.20
1680;DHT22;838;51.794;12.258;2023-01-19T16:37:06;3.20;20.90
1680;DHT22;838;51.794;12.258;2023-01-19T16:39:31;3.20;21.20
1680;DHT22;838;51.794;12.258;2023-01-19T16:41:57;3.30;20.80
1680;DHT22;838;51.794;12.258;2023-01-19T16:44:23;3.30;20.80
1680;DHT22;838;51.794;12.258;2023-01-19T16:46:49;3.20;21.20
1680;DHT22;838;51.794;12.258;2023-01-19T16:49:16;3.20;21.10
1680;DHT22;838;51.794;12.258;2023-01-19T16:51:42;3.20;21.10
1680;DHT22;838;51.794;12.258;2023-01-19T16:54:11;3.20;21.30
1680;DHT22;838;51.794;12.258;2023-01-19T16:56:37;3.20;21.40
1680;DHT22;838;51.794;12.258;2023-01-19T16:59:03;3.30;20.70
1680;DHT22;838;51.794;12.258;2023-01-19T17:01:30;3.40;20.80
1680;DHT22;838;51.794;12.258;2023-01-19T17:03:55;3.40;20.60
1680;DHT22;838;51.794;12.258;2023-01-19T17:06:22;3.40;20.50
1680;DHT22;838;51.794;12.258;2023-01-19T17:08:49;3.40;20.20
1680;DHT22;838;51.794;12.258;2023-01-19T17:11:23;3.40;20.10
1680;DHT22;838;51.794;12.258;2023-01-19T17:13:53;3.40;19.80
1680;DHT22;838;51.794;12.258;2023-01-19T17:16:20;3.40;19.90
1680;DHT22;838;51.794;12.258;2023-01-19T17:18:46;3.40;19.90
1680;DHT22;838;51.794;12.258;2023-01-19T17:21:11;3.50;19.70
1680;DHT22;838;51.794;12.258;2023-01-19T17:23:41;3.50;20.10
1680;DHT22;838;51.794;12.258;2023-01-19T17:26:07;3.50;20.30
1680;DHT22;838;51.794;12.258;2023-01-19T17:28:33;3.60;19.80
1680;DHT22;838;51.794;12.258;2023-01-19T17:33:31;3.60;19.70
1680;DHT22;838;51.794;12.258;2023-01-19T17:36:11;3.60;19.80
1680;DHT22;838;51.794;12.258;2023-01-19T17:38:38;3.70;19.60
1680;DHT22;838;51.794;12.258;2023-01-19T17:41:19;3.70;19.80
1680;DHT22;838;51.794;12.258;2023-01-19T17:43:45;3.80;19.60
1680;DHT22;838;51.794;12.258;2023-01-19T17:46:11;3.80;19.20
1680;DHT22;838;51.794;12.258;2023-01-19T17:48:38;3.70;19.40
1680;DHT22;838;51.794;12.258;2023-01-19T17:51:06;3.60;19.90
1680;DHT22;838;51.794;12.258;2023-01-19T17:53:34;3.60;20.40
1680;DHT22;838;51.794;12.258;2023-01-19T17:56:08;3.60;19.80
1680;DHT22;838;51.794;12.258;2023-01-19T17:58:34;3.60;20.50
1680;DHT22;838;51.794;12.258;2023-01-19T18:03:33;3.60;20.50
1680;DHT22;838;51.794;12.258;2023-01-19T18:05:59;3.70;20.20
1680;DHT22;838;51.794;12.258;2023-01-19T18:08:24;3.70;20.20
1680;DHT22;838;51.794;12.258;2023-01-19T18:10:57;3.60;21.20
1680;DHT22;838;51.794;12.258;2023-01-19T18:13:24;3.50;21.10
1680;DHT22;838;51.794;12.258;2023-01-19T18:15:50;3.60;21.60
1680;DHT22;838;51.794;12.258;2023-01-19T18:18:17;3.70;21.30